<?xml version='1.0' encoding='UTF-8'?>
<gpx xmlns="http://www.topografix.com/GPX/1/1" creator="www.balnam.be" version="1.1" xmlns:xsi="http://www.w3.org/2001/XMLSchema-instance" xsi:schemaLocation="http://www.topografix.com/GPX/1/1 http://www.topografix.com/GPX/1/1/gpx.xsd">
<trk>
<name>xaogg7</name>
<cmt>v</cmt>
<desc>Guirsch Chemin n°7 Vallée des Trois Moulins</desc>
<link href="https://chemins.be/guirsch/chemin/7"/><trkseg>
<trkpt lat="49.707832" lon="5.843691"><time>2026-05-03T07:11:21Z</time></trkpt>
<trkpt lat="49.707516" lon="5.844984"><time>2026-05-03T07:21:21Z</time></trkpt>
<trkpt lat="49.707072" lon="5.847537"><time>2026-05-03T07:31:21Z</time></trkpt>
<trkpt lat="49.706687" lon="5.849318"><time>2026-05-03T07:41:21Z</time></trkpt>
<trkpt lat="49.706697" lon="5.850749"><time>2026-05-03T07:51:21Z</time></trkpt>
<trkpt lat="49.706651" lon="5.850867"><time>2026-05-03T08:01:21Z</time></trkpt>
<trkpt lat="49.706818" lon="5.851034"><time>2026-05-03T08:11:21Z</time></trkpt>
<trkpt lat="49.706641" lon="5.851179"><time>2026-05-03T08:21:21Z</time></trkpt>
<trkpt lat="49.705494" lon="5.851593"><time>2026-05-03T08:31:21Z</time></trkpt>
<trkpt lat="49.705091" lon="5.852800"><time>2026-05-03T08:41:21Z</time></trkpt>
<trkpt lat="49.705150" lon="5.853712"><time>2026-05-03T08:51:21Z</time></trkpt>
<trkpt lat="49.705334" lon="5.854323"><time>2026-05-03T09:01:21Z</time></trkpt>
<trkpt lat="49.706101" lon="5.854168"><time>2026-05-03T09:11:21Z</time></trkpt>
<trkpt lat="49.706392" lon="5.854447"><time>2026-05-03T09:21:21Z</time></trkpt>
<trkpt lat="49.706639" lon="5.854511"><time>2026-05-03T09:31:21Z</time></trkpt>
<trkpt lat="49.708339" lon="5.858674"><time>2026-05-03T09:41:21Z</time></trkpt>
<trkpt lat="49.708549" lon="5.860047"><time>2026-05-03T09:51:21Z</time></trkpt>
<trkpt lat="49.708333" lon="5.861399"><time>2026-05-03T10:01:21Z</time></trkpt>
<trkpt lat="49.708522" lon="5.862091"><time>2026-05-03T10:11:21Z</time></trkpt>
<trkpt lat="49.708653" lon="5.862440"><time>2026-05-03T10:21:21Z</time></trkpt>
</trkseg></trk>
<trk>
<name>xaogg7</name>
<cmt>r</cmt>
<desc>Guirsch Chemin n°7 Vallée des Trois Moulins</desc>
<link href="https://chemins.be/guirsch/chemin/7"/><trkseg>
<trkpt lat="49.708653" lon="5.862440"><time>2026-05-03T10:21:21Z</time></trkpt>
<trkpt lat="49.709867" lon="5.864414"><time>2026-05-03T10:31:21Z</time></trkpt>
<trkpt lat="49.711560" lon="5.869102"><time>2026-05-03T10:41:21Z</time></trkpt>
<trkpt lat="49.711358" lon="5.870240"><time>2026-05-03T10:51:21Z</time></trkpt>
<trkpt lat="49.712618" lon="5.876484"><time>2026-05-03T11:01:21Z</time></trkpt>
</trkseg></trk>
<trk>
<name>xaogg7</name>
<cmt>v</cmt>
<desc>Guirsch Chemin n°7 Vallée des Trois Moulins</desc>
<link href="https://chemins.be/guirsch/chemin/7"/><trkseg>
<trkpt lat="49.712618" lon="5.876484"><time>2026-05-03T11:01:21Z</time></trkpt>
<trkpt lat="49.713424" lon="5.880368"><time>2026-05-03T11:11:21Z</time></trkpt>
</trkseg>
</trk>
</gpx>